createdAt,value
2023-03-18T00:00:47.892Z,98896.50
2023-03-18T00:01:50.098Z,98891.91
2023-03-18T00:02:52.649Z,98894.81
2023-03-18T00:03:55.234Z,98900.13
2023-03-18T00:04:57.543Z,98897.06
2023-03-18T00:06:08.579Z,98890.34
2023-03-18T00:07:12.033Z,98905.03
2023-03-18T00:08:14.480Z,98897.19
2023-03-18T00:09:17.615Z,98895.66
2023-03-18T00:10:20.394Z,98902.47
2023-03-18T00:11:22.781Z,98892.28
2023-03-18T00:12:25.286Z,98900.22
2023-03-18T00:13:27.839Z,98898.97
2023-03-18T00:14:30.123Z,98898.69
2023-03-18T00:15:32.476Z,98901.16
2023-03-18T00:16:37.776Z,98903.84
2023-03-18T00:17:41.231Z,98899.41
2023-03-18T00:18:43.808Z,98895.00
2023-03-18T00:19:46.165Z,98896.56
2023-03-18T00:20:48.433Z,98891.00
2023-03-18T00:21:50.975Z,98903.22
2023-03-18T00:22:53.256Z,98898.25
2023-03-18T00:23:56.914Z,98905.25
2023-03-18T00:24:59.347Z,98911.94
2023-03-18T00:26:02.976Z,98916.13
2023-03-18T00:27:05.245Z,98916.44
2023-03-18T00:28:07.971Z,98922.16
2023-03-18T00:29:10.692Z,98906.75
2023-03-18T00:30:13.835Z,98922.22
2023-03-18T00:31:16.277Z,98926.44
2023-03-18T00:32:18.589Z,98921.03
2023-03-18T00:33:21.058Z,98928.84
2023-03-18T00:34:23.321Z,98919.06
2023-03-18T00:35:28.043Z,98926.88
2023-03-18T00:36:30.907Z,98930.53
2023-03-18T00:37:35.650Z,98933.69
2023-03-18T00:38:42.129Z,98929.78
2023-03-18T00:39:46.084Z,98924.38
2023-03-18T00:41:11.259Z,98931.25
2023-03-18T00:42:14.714Z,98919.63
2023-03-18T00:43:16.888Z,98932.16
2023-03-18T00:44:19.359Z,98926.34
2023-03-18T00:45:21.844Z,98933.97
2023-03-18T00:46:35.343Z,98931.38
2023-03-18T00:47:38.467Z,98920.69
2023-03-18T00:48:41.041Z,98921.88
2023-03-18T00:49:43.368Z,98918.63
2023-03-18T00:50:45.786Z,98924.72
2023-03-18T00:51:48.104Z,98929.88
2023-03-18T00:52:50.382Z,98923.25
2023-03-18T00:53:55.462Z,98922.16
2023-03-18T00:54:57.773Z,98921.22
2023-03-18T00:56:00.438Z,98914.88
2023-03-18T00:57:02.875Z,98925.19
2023-03-18T00:58:05.171Z,98928.31
2023-03-18T00:59:08.673Z,98920.59
2023-03-18T01:00:11.701Z,98917.09
2023-03-18T01:01:15.446Z,98918.88
2023-03-18T01:02:17.855Z,98922.69
2023-03-18T01:03:20.364Z,98931.31
2023-03-18T01:04:22.775Z,98920.97
2023-03-18T01:05:25.042Z,98921.97
2023-03-18T01:06:31.420Z,98921.97
2023-03-18T01:07:33.738Z,98927.84
2023-03-18T01:08:36.496Z,98922.47
2023-03-18T01:09:43.511Z,98933.88
2023-03-18T01:10:45.765Z,98927.06
2023-03-18T01:11:48.031Z,98936.44
2023-03-18T01:12:51.009Z,98921.28
2023-03-18T01:13:53.886Z,98929.22
2023-03-18T01:14:56.424Z,98930.25
2023-03-18T01:15:58.848Z,98936.81
2023-03-18T01:17:02.136Z,98930.47
2023-03-18T01:18:04.446Z,98926.66
2023-03-18T01:19:07.044Z,98933.69
2023-03-18T01:20:11.492Z,98933.75
2023-03-18T01:21:15.232Z,98935.50
2023-03-18T01:22:24.337Z,98936.75
2023-03-18T01:23:27.888Z,98936.75
2023-03-18T01:24:30.515Z,98930.19
2023-03-18T01:25:33.682Z,98936.94
2023-03-18T01:26:36.788Z,98935.66
2023-03-18T01:27:39.415Z,98936.19
2023-03-18T01:28:43.054Z,98932.88
2023-03-18T01:29:46.510Z,98930.94
2023-03-18T01:30:55.433Z,98933.69
2023-03-18T01:31:57.949Z,98936.69
2023-03-18T01:33:00.811Z,98933.91
2023-03-18T01:34:04.741Z,98933.22
2023-03-18T01:35:17.866Z,98937.34
2023-03-18T01:36:22.624Z,98926.69
2023-03-18T01:37:38.128Z,98941.38
2023-03-18T01:38:48.202Z,98936.94
2023-03-18T01:39:51.159Z,98936.94
2023-03-18T01:40:59.662Z,98932.34
2023-03-18T01:42:02.249Z,98930.53
2023-03-18T01:43:19.568Z,98935.56
2023-03-18T01:44:24.721Z,98935.56
2023-03-18T01:45:30.671Z,98940.78
2023-03-18T01:46:58.530Z,98930.94
2023-03-18T01:48:01.194Z,98933.69
2023-03-18T01:49:10.631Z,98939.50
2023-03-18T01:50:15.728Z,98934.97
2023-03-18T01:51:19.788Z,98929.84
2023-03-18T01:52:27.025Z,98927.13
2023-03-18T01:53:39.085Z,98929.56
2023-03-18T01:55:00.537Z,98935.97
2023-03-18T01:56:04.099Z,98928.97
2023-03-18T01:57:07.589Z,98930.00
2023-03-18T01:58:18.514Z,98909.25
2023-03-18T01:59:24.956Z,98922.47
2023-03-18T02:00:28.468Z,98923.50
2023-03-18T02:01:53.693Z,98923.44
2023-03-18T02:02:58.324Z,98912.22
2023-03-18T02:04:04.345Z,98914.34
2023-03-18T02:05:11.188Z,98912.44
2023-03-18T02:06:14.014Z,98907.34
2023-03-18T02:07:21.164Z,98915.91
2023-03-18T02:08:23.459Z,98913.22
2023-03-18T02:09:25.936Z,98920.41
2023-03-18T02:10:31.984Z,98911.78
2023-03-18T02:11:39.456Z,98916.84
2023-03-18T02:12:45.558Z,98917.06
2023-03-18T02:13:52.576Z,98912.75
2023-03-18T02:14:55.983Z,98917.88
2023-03-18T02:16:05.485Z,98909.56
2023-03-18T02:17:15.284Z,98921.16
2023-03-18T02:18:24.739Z,98928.69
2023-03-18T02:20:03.249Z,98930.22
2023-03-18T02:21:14.088Z,98930.00
2023-03-18T02:22:24.908Z,98927.38
2023-03-18T02:23:35.019Z,98930.53
2023-03-18T02:25:02.444Z,98933.88
2023-03-18T02:26:07.181Z,98933.59
2023-03-18T02:27:18.977Z,98924.88
2023-03-18T02:28:28.200Z,98919.41
2023-03-18T02:29:36.779Z,98928.03
2023-03-18T02:30:48.651Z,98927.00
2023-03-18T02:31:53.378Z,98922.81
2023-03-18T02:32:59.262Z,98923.84
2023-03-18T02:34:02.008Z,98922.25
2023-03-18T02:35:08.623Z,98926.63
2023-03-18T02:36:23.937Z,98933.53
2023-03-18T02:37:28.024Z,98928.41
2023-03-18T02:38:30.444Z,98932.63
2023-03-18T02:39:32.947Z,98926.78
2023-03-18T02:40:39.653Z,98938.78
2023-03-18T02:41:48.389Z,98933.66
2023-03-18T02:42:51.395Z,98932.06
2023-03-18T02:43:54.303Z,98932.78
2023-03-18T02:44:59.821Z,98928.47
2023-03-18T02:46:38.535Z,98929.06
2023-03-18T02:47:44.918Z,98939.09
2023-03-18T02:48:48.895Z,98937.31
2023-03-18T02:49:51.589Z,98931.53
2023-03-18T02:50:56.163Z,98936.72
2023-03-18T02:51:58.810Z,98941.13
2023-03-18T02:53:04.236Z,98940.00
2023-03-18T02:54:12.881Z,98944.44
2023-03-18T02:55:15.559Z,98950.72
2023-03-18T02:56:18.431Z,98942.66
2023-03-18T02:57:20.664Z,98944.25
2023-03-18T02:58:23.227Z,98948.59
2023-03-18T02:59:32.291Z,98949.59
2023-03-18T03:02:08.974Z,98952.81
2023-03-18T03:03:11.688Z,98954.41
2023-03-18T03:04:15.559Z,98948.16
2023-03-18T03:05:17.782Z,98950.97
2023-03-18T03:06:20.062Z,98957.06
2023-03-18T03:07:27.778Z,98961.78
2023-03-18T03:08:30.773Z,98951.03
2023-03-18T03:09:33.405Z,98953.78
2023-03-18T03:10:36.455Z,98951.34
2023-03-18T03:11:39.134Z,98946.81
2023-03-18T03:12:48.260Z,98948.56
2023-03-18T03:13:53.435Z,98953.13
2023-03-18T03:14:56.595Z,98957.94
2023-03-18T03:16:00.385Z,98956.19
2023-03-18T03:17:02.954Z,98953.81
2023-03-18T03:18:05.691Z,98955.31
2023-03-18T03:19:08.263Z,98949.13
2023-03-18T03:20:12.597Z,98952.47
2023-03-18T03:21:15.128Z,98949.91
2023-03-18T03:22:18.450Z,98962.19
2023-03-18T03:23:22.056Z,98962.00
2023-03-18T03:24:24.210Z,98950.16
2023-03-18T03:25:27.419Z,98946.78
2023-03-18T03:26:30.867Z,98963.84
2023-03-18T03:27:33.096Z,98968.56
2023-03-18T03:28:36.285Z,98964.03
2023-03-18T03:29:38.993Z,98963.69
2023-03-18T03:30:42.226Z,98963.41
2023-03-18T03:31:45.199Z,98972.38
2023-03-18T03:32:47.690Z,98961.84
2023-03-18T03:33:49.965Z,98971.66
2023-03-18T03:34:52.152Z,98964.88
2023-03-18T03:35:55.121Z,98966.94
2023-03-18T03:36:57.412Z,98962.31
2023-03-18T03:38:01.961Z,98968.06
2023-03-18T03:39:04.276Z,98964.69
2023-03-18T03:40:15.905Z,98959.34
2023-03-18T03:41:18.982Z,98959.97
2023-03-18T03:42:24.370Z,98962.34
2023-03-18T03:43:26.601Z,98962.06
2023-03-18T03:44:29.297Z,98968.03
2023-03-18T03:45:32.919Z,98963.94
2023-03-18T03:46:35.934Z,98971.97
2023-03-18T03:47:38.408Z,98969.59
2023-03-18T03:48:40.650Z,98967.03
2023-03-18T03:49:47.723Z,98972.97
2023-03-18T03:50:51.573Z,98973.84
2023-03-18T03:52:00.803Z,98975.44
2023-03-18T03:53:04.870Z,98967.47
2023-03-18T03:54:07.178Z,98974.53
2023-03-18T03:55:13.094Z,98973.38
2023-03-18T03:56:15.682Z,98964.44
2023-03-18T03:57:18.784Z,98971.41
2023-03-18T03:58:21.756Z,98975.56
2023-03-18T03:59:24.811Z,98965.06
2023-03-18T04:00:39.799Z,98974.66
2023-03-18T04:01:42.122Z,98978.28
2023-03-18T04:02:45.455Z,98963.72
2023-03-18T04:03:49.600Z,98969.84
2023-03-18T04:04:53.616Z,98976.56
2023-03-18T04:06:01.630Z,98973.19
2023-03-18T04:07:06.450Z,98965.34
2023-03-18T04:08:08.765Z,98974.16
2023-03-18T04:09:12.847Z,98980.28
2023-03-18T04:10:17.443Z,98979.28
2023-03-18T04:11:20.340Z,98978.38
2023-03-18T04:12:22.819Z,98980.28
2023-03-18T04:13:31.538Z,98983.66
2023-03-18T04:14:33.807Z,98987.84
2023-03-18T04:15:36.138Z,98990.06
2023-03-18T04:16:44.717Z,98987.53
2023-03-18T04:17:47.339Z,98983.44
2023-03-18T04:18:52.668Z,98985.72
2023-03-18T04:19:58.574Z,98976.75
2023-03-18T04:21:05.902Z,98976.88
2023-03-18T04:22:29.621Z,98976.84
2023-03-18T04:23:35.720Z,98976.75
2023-03-18T04:24:38.592Z,98980.91
2023-03-18T04:25:42.824Z,98974.47
2023-03-18T04:26:45.066Z,98982.94
2023-03-18T04:27:47.363Z,98973.34
2023-03-18T04:28:52.112Z,98983.75
2023-03-18T04:29:54.751Z,98976.50
2023-03-18T04:30:58.731Z,98984.38
2023-03-18T04:32:01.494Z,98979.06
2023-03-18T04:33:04.238Z,98975.53
2023-03-18T04:34:08.027Z,98983.38
2023-03-18T04:35:11.203Z,98981.41
2023-03-18T04:36:13.820Z,98983.31
2023-03-18T04:37:19.794Z,98980.66
2023-03-18T04:38:24.467Z,98980.75
2023-03-18T04:39:28.034Z,98979.94
2023-03-18T04:40:31.150Z,98979.13
2023-03-18T04:41:33.588Z,98982.66
2023-03-18T04:42:39.570Z,98978.75
2023-03-18T04:43:44.650Z,98978.34
2023-03-18T04:44:47.089Z,98983.00
2023-03-18T04:45:51.781Z,98982.34
2023-03-18T04:46:54.688Z,98985.00
2023-03-18T04:47:58.346Z,98975.41
2023-03-18T04:49:02.079Z,98985.09
2023-03-18T04:50:05.314Z,98980.53
2023-03-18T04:51:09.197Z,98982.97
2023-03-18T04:52:12.528Z,98980.19
2023-03-18T04:53:16.615Z,98983.53
2023-03-18T04:54:19.856Z,98979.13
2023-03-18T04:55:22.732Z,98983.31
2023-03-18T04:56:25.822Z,98981.66
2023-03-18T04:57:29.584Z,98985.19
2023-03-18T04:58:31.954Z,98979.13
2023-03-18T04:59:43.941Z,98974.91
2023-03-18T05:00:46.442Z,98979.53
2023-03-18T05:01:56.955Z,98981.50
2023-03-18T05:02:59.179Z,98976.41
2023-03-18T05:04:02.744Z,98980.94
2023-03-18T05:05:14.415Z,98977.53
2023-03-18T05:06:27.256Z,98977.13
2023-03-18T05:07:33.399Z,98982.53
2023-03-18T05:08:43.269Z,98979.91
2023-03-18T05:09:47.343Z,98985.91
2023-03-18T05:10:50.665Z,98983.06
2023-03-18T05:11:53.935Z,98979.38
2023-03-18T05:13:07.045Z,98978.09
2023-03-18T05:14:11.824Z,98979.66
2023-03-18T05:15:19.400Z,98978.75
2023-03-18T05:16:27.745Z,98983.16
2023-03-18T05:17:30.069Z,98980.59
2023-03-18T05:18:37.790Z,98983.91
2023-03-18T05:19:43.966Z,98988.69
2023-03-18T05:20:56.245Z,98971.47
2023-03-18T05:22:00.142Z,98988.50
2023-03-18T05:23:03.018Z,98986.63
2023-03-18T05:24:19.730Z,98983.72
2023-03-18T05:25:22.383Z,98983.53
2023-03-18T05:26:24.750Z,98986.84
2023-03-18T05:27:28.374Z,98985.38
2023-03-18T05:28:36.036Z,98981.16
2023-03-18T05:30:15.432Z,98981.84
2023-03-18T05:31:21.782Z,98979.97
2023-03-18T05:32:24.599Z,98992.78
2023-03-18T05:33:33.318Z,98982.44
2023-03-18T05:34:38.967Z,98978.47
2023-03-18T05:35:42.595Z,98994.53
2023-03-18T05:36:45.383Z,98988.81
2023-03-18T05:37:48.031Z,98991.28
2023-03-18T05:38:50.932Z,98997.38
2023-03-18T05:39:53.943Z,98992.28
2023-03-18T05:40:56.202Z,99000.06
2023-03-18T05:42:06.520Z,98994.97
2023-03-18T05:43:09.378Z,98996.75
2023-03-18T05:44:17.596Z,99000.06
2023-03-18T05:45:19.825Z,99006.69
2023-03-18T05:46:46.839Z,98997.69
2023-03-18T05:48:14.289Z,99000.84
2023-03-18T05:49:43.032Z,99000.69
2023-03-18T05:50:53.342Z,99000.44
2023-03-18T05:52:01.258Z,98997.47
2023-03-18T05:53:13.306Z,98995.03
2023-03-18T05:54:17.951Z,98999.31
2023-03-18T05:55:20.757Z,99000.38
2023-03-18T05:56:24.612Z,99007.47
2023-03-18T05:57:30.603Z,99003.19
2023-03-18T06:14:29.162Z,99015.50
2023-03-18T06:15:37.633Z,99014.38
2023-03-18T06:16:41.713Z,99012.22
2023-03-18T06:17:44.362Z,99019.94
2023-03-18T06:18:47.993Z,99016.03
2023-03-18T06:19:51.568Z,99015.63
2023-03-18T06:20:54.536Z,99010.72
2023-03-18T06:21:57.132Z,99013.59
2023-03-18T06:22:59.850Z,99017.72
2023-03-18T06:24:03.094Z,99020.22
2023-03-18T06:40:23.862Z,99017.72
2023-03-18T06:41:26.337Z,99016.28
2023-03-18T06:42:39.289Z,99012.63
2023-03-18T06:43:50.580Z,99016.03
2023-03-18T06:44:53.212Z,99013.69
2023-03-18T06:46:01.169Z,99016.63
2023-03-18T06:47:03.517Z,99010.38
2023-03-18T06:48:10.363Z,99011.94
2023-03-18T06:49:16.446Z,99007.50
2023-03-18T06:50:25.357Z,99008.09
2023-03-18T06:51:28.018Z,99001.03
2023-03-18T06:52:30.515Z,99006.88
2023-03-18T06:53:38.585Z,99004.38
2023-03-18T06:54:41.629Z,98996.66
2023-03-18T06:55:44.871Z,98998.25
2023-03-18T06:56:47.414Z,99008.41
2023-03-18T06:57:53.505Z,99000.53
2023-03-18T06:59:00.715Z,98993.38
2023-03-18T07:00:05.103Z,99006.88
2023-03-18T07:01:08.316Z,99007.50
2023-03-18T07:02:16.454Z,99001.56
2023-03-18T07:03:19.072Z,99009.41
2023-03-18T07:04:23.712Z,99009.19
2023-03-18T07:05:26.916Z,99007.66
2023-03-18T07:06:30.562Z,99016.63
2023-03-18T07:07:33.193Z,99012.38
2023-03-18T07:08:35.840Z,99006.69
2023-03-18T07:09:38.377Z,99015.06
2023-03-18T07:10:42.322Z,99011.53
2023-03-18T07:11:48.164Z,99009.97
2023-03-18T07:12:55.928Z,99001.03
2023-03-18T07:13:58.183Z,99012.63
2023-03-18T07:15:04.832Z,99009.88
2023-03-18T07:16:07.259Z,99013.06
2023-03-18T07:17:10.685Z,99016.56
2023-03-18T07:18:14.101Z,99010.84
2023-03-18T07:19:17.742Z,99009.38
2023-03-18T07:20:22.280Z,99026.94
2023-03-18T07:21:25.412Z,99021.56
2023-03-18T07:22:27.589Z,99027.19
2023-03-18T07:23:29.835Z,99023.22
2023-03-18T07:24:32.923Z,99028.31
2023-03-18T07:25:36.647Z,99031.66
2023-03-18T07:26:38.906Z,99033.50
2023-03-18T07:27:45.941Z,99031.88
2023-03-18T07:28:48.191Z,99032.28
2023-03-18T07:29:50.624Z,99037.00
2023-03-18T07:30:54.292Z,99041.00
2023-03-18T07:31:57.288Z,99035.59
2023-03-18T07:32:59.946Z,99028.66
2023-03-18T07:34:02.640Z,99038.91
2023-03-18T07:35:07.017Z,99037.78
2023-03-18T07:36:09.617Z,99034.78
2023-03-18T07:37:11.975Z,99038.84
2023-03-18T07:38:14.331Z,99039.25
2023-03-18T07:39:17.039Z,99038.84
2023-03-18T07:40:19.246Z,99036.69
2023-03-18T07:41:21.766Z,99043.88
2023-03-18T07:42:24.023Z,99035.22
2023-03-18T07:43:26.509Z,99024.97
2023-03-18T07:44:29.349Z,99038.03
2023-03-18T07:45:31.792Z,99032.84
2023-03-18T07:46:34.267Z,99035.75
2023-03-18T07:47:37.146Z,99038.56
2023-03-18T07:48:39.435Z,99035.69
2023-03-18T07:49:41.686Z,99036.44
2023-03-18T07:50:43.941Z,99036.97
2023-03-18T07:51:46.290Z,99031.25
2023-03-18T07:52:48.647Z,99041.16
2023-03-18T07:53:51.794Z,99037.63
2023-03-18T07:54:54.092Z,99040.94
2023-03-18T07:55:56.413Z,99044.53
2023-03-18T07:56:58.910Z,99033.25
2023-03-18T07:58:01.290Z,99036.72
2023-03-18T07:59:03.578Z,99039.53
2023-03-18T08:00:08.065Z,99039.16
2023-03-18T08:01:18.353Z,99040.22
2023-03-18T08:02:21.689Z,99044.44
2023-03-18T08:03:24.002Z,99043.34
2023-03-18T08:04:26.494Z,99041.81
2023-03-18T08:05:28.781Z,99041.31
2023-03-18T08:06:31.467Z,99045.56
2023-03-18T08:07:34.727Z,99043.41
2023-03-18T08:08:37.986Z,99037.84
2023-03-18T08:09:40.404Z,99043.78
2023-03-18T08:10:42.870Z,99047.06
2023-03-18T08:11:45.173Z,99049.56
2023-03-18T08:12:53.263Z,99046.41
2023-03-18T08:13:56.489Z,99037.66
2023-03-18T08:14:59.870Z,99046.81
2023-03-18T08:16:02.502Z,99039.34
2023-03-18T08:17:04.813Z,99044.63
2023-03-18T08:18:09.369Z,99048.03
2023-03-18T08:19:12.017Z,99046.50
2023-03-18T08:20:15.263Z,99047.75
2023-03-18T08:21:17.730Z,99049.81
2023-03-18T08:22:19.922Z,99056.06
2023-03-18T08:23:23.533Z,99047.78
2023-03-18T08:24:26.622Z,99047.50
2023-03-18T08:25:28.899Z,99046.09
2023-03-18T08:26:31.128Z,99048.56
2023-03-18T08:27:33.338Z,99042.78
2023-03-18T08:28:35.575Z,99048.47
2023-03-18T08:29:37.788Z,99047.66
2023-03-18T08:30:40.070Z,99054.22
2023-03-18T08:31:42.980Z,99050.06
2023-03-18T08:32:46.183Z,99047.09
2023-03-18T08:33:49.882Z,99054.91
2023-03-18T08:34:52.378Z,99054.38
2023-03-18T08:35:56.312Z,99042.66
2023-03-18T08:36:59.139Z,99055.91
2023-03-18T08:38:01.577Z,99050.47
2023-03-18T08:39:05.258Z,99056.47
2023-03-18T08:40:09.807Z,99053.97
2023-03-18T08:41:12.043Z,99051.47
2023-03-18T08:42:14.362Z,99050.56
2023-03-18T08:43:16.855Z,99047.03
2023-03-18T08:44:19.032Z,99053.94
2023-03-18T08:45:21.202Z,99051.69
2023-03-18T08:46:23.760Z,99048.28
2023-03-18T08:47:25.989Z,99051.66
2023-03-18T08:48:28.361Z,99044.66
2023-03-18T08:49:30.587Z,99052.28
2023-03-18T08:50:34.476Z,99050.31
2023-03-18T08:51:36.751Z,99054.66
2023-03-18T08:52:39.722Z,99063.75
2023-03-18T08:53:42.131Z,99053.66
2023-03-18T08:54:44.471Z,99050.81
2023-03-18T08:55:47.694Z,99054.69
2023-03-18T08:56:50.130Z,99046.84
2023-03-18T08:57:53.074Z,99044.75
2023-03-18T08:58:55.379Z,99040.63
2023-03-18T08:59:57.718Z,99043.75
2023-03-18T09:01:00.208Z,99047.63
2023-03-18T09:02:03.447Z,99043.66
2023-03-18T09:03:06.191Z,99045.13
2023-03-18T09:04:08.512Z,99052.88
2023-03-18T09:05:10.719Z,99048.00
2023-03-18T09:06:13.034Z,99040.97
2023-03-18T09:07:17.941Z,99041.31
2023-03-18T09:08:22.039Z,99048.59
2023-03-18T09:09:31.059Z,99038.03
2023-03-18T09:10:39.483Z,99037.72
2023-03-18T09:11:41.764Z,99040.84
2023-03-18T09:12:45.704Z,99034.97
2023-03-18T09:13:47.947Z,99033.81
2023-03-18T09:14:50.455Z,99034.06
2023-03-18T09:15:53.209Z,99035.94
2023-03-18T09:16:55.605Z,99029.63
2023-03-18T09:18:10.779Z,99035.78
2023-03-18T09:19:14.040Z,99034.59
2023-03-18T09:20:17.449Z,99038.34
2023-03-18T09:21:20.273Z,99027.25
2023-03-18T09:22:22.783Z,99029.09
2023-03-18T09:23:26.646Z,99024.75
2023-03-18T09:24:28.916Z,99023.56
2023-03-18T09:25:31.456Z,99016.44
2023-03-18T09:26:33.934Z,99013.72
2023-03-18T09:27:36.238Z,99013.41
2023-03-18T09:28:38.569Z,99017.50
2023-03-18T09:29:41.664Z,99013.44
2023-03-18T09:30:44.528Z,99005.63
2023-03-18T09:31:46.979Z,98996.59
2023-03-18T09:32:49.631Z,99006.53
2023-03-18T09:33:51.868Z,99004.44
2023-03-18T09:34:54.493Z,99010.94
2023-03-18T09:35:56.729Z,99005.44
2023-03-18T09:36:59.124Z,99007.63
2023-03-18T09:38:02.094Z,99002.69
2023-03-18T09:39:04.491Z,99004.41
2023-03-18T09:40:08.479Z,99002.97
2023-03-18T09:41:10.663Z,99004.19
2023-03-18T09:42:32.205Z,98997.25
2023-03-18T09:43:54.004Z,99002.47
2023-03-18T09:45:00.249Z,98992.34
2023-03-18T09:46:14.806Z,98996.16
2023-03-18T09:47:42.002Z,98979.25
2023-03-18T09:49:02.367Z,98995.72
2023-03-18T09:50:15.652Z,98991.56
2023-03-18T09:51:42.126Z,98992.63
2023-03-18T09:52:48.666Z,98989.38
2023-03-18T09:53:51.310Z,98997.81
2023-03-18T09:55:13.774Z,98990.13
2023-03-18T09:56:22.807Z,98986.28
2023-03-18T09:57:29.715Z,98993.19
2023-03-18T09:58:31.891Z,98995.44
2023-03-18T09:59:40.468Z,98986.03
2023-03-18T10:00:44.316Z,98987.97
2023-03-18T10:01:50.035Z,98997.53
2023-03-18T10:02:59.031Z,98999.63
2023-03-18T10:04:13.969Z,99000.41
2023-03-18T10:05:46.003Z,99003.31
2023-03-18T10:06:53.372Z,99000.00
2023-03-18T10:08:02.560Z,98994.19
2023-03-18T10:09:26.153Z,98988.56
2023-03-18T10:10:42.171Z,98987.16
2023-03-18T10:11:49.524Z,98996.19
2023-03-18T10:13:05.247Z,98993.34
2023-03-18T10:14:18.515Z,98987.19
2023-03-18T10:15:33.109Z,98999.19
2023-03-18T10:17:23.048Z,98993.34
2023-03-18T10:18:32.040Z,98988.81
2023-03-18T10:19:36.143Z,98982.69
2023-03-18T10:21:11.320Z,98989.63
2023-03-18T10:22:44.987Z,98988.56
2023-03-18T10:23:54.416Z,98989.16
2023-03-18T10:25:12.051Z,98980.94
2023-03-18T10:26:24.698Z,98996.06
2023-03-18T10:27:55.100Z,98996.22
2023-03-18T10:29:29.754Z,98984.34
2023-03-18T10:31:00.201Z,98985.75
2023-03-18T10:32:23.340Z,98975.94
2023-03-18T10:33:39.046Z,98980.91
2023-03-18T10:35:08.499Z,98983.44
2023-03-18T10:36:20.101Z,98987.72
2023-03-18T10:37:46.544Z,98981.38
2023-03-18T10:38:51.696Z,98984.59
2023-03-18T10:39:54.620Z,98975.28
2023-03-18T10:40:57.647Z,98983.28
2023-03-18T10:42:10.788Z,98980.41
2023-03-18T10:43:17.854Z,98982.84
2023-03-18T10:44:37.347Z,98985.13
2023-03-18T10:45:42.047Z,98990.22
2023-03-18T10:46:47.428Z,98987.31
2023-03-18T10:48:24.500Z,98986.81
2023-03-18T10:49:35.560Z,98978.59
2023-03-18T10:50:43.714Z,98979.94
2023-03-18T10:51:53.598Z,98977.84
2023-03-18T10:53:00.541Z,98982.31
2023-03-18T10:54:32.460Z,98979.06
2023-03-18T10:55:45.001Z,98971.44
2023-03-18T10:56:47.328Z,98981.94
2023-03-18T10:57:49.414Z,98973.00
2023-03-18T10:58:56.313Z,98967.50
2023-03-18T10:59:58.764Z,98971.03
2023-03-18T11:01:01.189Z,98977.97
2023-03-18T11:02:17.473Z,98974.44
2023-03-18T11:04:03.248Z,98977.97
2023-03-18T11:05:17.180Z,98975.16
2023-03-18T11:06:25.267Z,98969.66
2023-03-18T11:07:28.662Z,98972.06
2023-03-18T11:08:39.654Z,98969.19
2023-03-18T11:09:42.471Z,98975.16
2023-03-18T11:10:46.289Z,98977.50
2023-03-18T11:11:50.903Z,98974.56
2023-03-18T11:13:02.633Z,98972.47
2023-03-18T11:14:08.247Z,98970.56
2023-03-18T11:15:12.759Z,98963.03
2023-03-18T11:16:29.645Z,98964.81
2023-03-18T11:17:35.423Z,98964.75
2023-03-18T11:18:38.239Z,98965.13
2023-03-18T11:19:48.811Z,98958.09
2023-03-18T11:21:01.277Z,98961.00
2023-03-18T11:22:10.550Z,98957.56
2023-03-18T11:23:20.489Z,98964.56
2023-03-18T11:24:36.347Z,98959.56
2023-03-18T11:25:38.932Z,98953.81
2023-03-18T11:26:47.684Z,98957.69
2023-03-18T11:27:52.276Z,98954.41
2023-03-18T11:28:56.950Z,98950.19
2023-03-18T11:30:01.390Z,98945.50
2023-03-18T11:31:05.774Z,98944.69
2023-03-18T11:32:34.063Z,98937.47
2023-03-18T11:33:37.280Z,98937.69
2023-03-18T11:34:39.526Z,98937.47
2023-03-18T11:36:08.461Z,98933.94
2023-03-18T11:37:11.787Z,98934.41
2023-03-18T11:38:19.638Z,98934.94
2023-03-18T11:39:24.915Z,98936.28
2023-03-18T11:40:29.651Z,98928.56
2023-03-18T11:41:31.932Z,98930.25
2023-03-18T11:42:34.263Z,98934.53
2023-03-18T11:43:38.221Z,98929.16
2023-03-18T11:44:40.551Z,98925.94
2023-03-18T11:45:54.501Z,98932.16
2023-03-18T11:47:15.669Z,98935.25
2023-03-18T11:48:37.842Z,98928.59
2023-03-18T11:49:40.235Z,98926.38
2023-03-18T11:51:12.249Z,98933.38
2023-03-18T11:52:38.985Z,98938.34
2023-03-18T11:54:09.550Z,98928.66
2023-03-18T11:55:21.964Z,98939.47
2023-03-18T11:56:31.593Z,98934.63
2023-03-18T11:57:57.714Z,98933.63
2023-03-18T11:59:32.363Z,98920.88
2023-03-18T12:00:39.887Z,98936.94
2023-03-18T12:01:51.547Z,98936.44
2023-03-18T12:03:25.039Z,98940.38
2023-03-18T12:04:36.199Z,98921.84
2023-03-18T12:05:52.042Z,98923.94
2023-03-18T12:07:09.015Z,98927.97
2023-03-18T12:08:20.611Z,98922.97
2023-03-18T12:09:32.091Z,98930.56
2023-03-18T12:10:51.642Z,98927.56
2023-03-18T12:12:15.601Z,98918.38
2023-03-18T12:13:55.450Z,98925.09
2023-03-18T12:15:28.717Z,98925.09
2023-03-18T12:16:51.795Z,98925.38
2023-03-18T12:18:04.424Z,98916.94
2023-03-18T12:19:24.433Z,98913.41
2023-03-18T12:20:52.637Z,98923.81
2023-03-18T12:22:04.508Z,98920.09
2023-03-18T12:23:21.886Z,98919.53
2023-03-18T12:24:46.054Z,98929.88
2023-03-18T12:26:03.748Z,98927.59
2023-03-18T12:27:55.140Z,98921.09
2023-03-18T12:29:32.200Z,98926.47
2023-03-18T12:31:00.793Z,98924.59
2023-03-18T12:32:02.963Z,98917.44
2023-03-18T12:33:32.458Z,98918.53
2023-03-18T12:34:37.282Z,98914.78
2023-03-18T12:35:52.475Z,98913.38
2023-03-18T12:37:17.848Z,98912.16
2023-03-18T12:38:45.089Z,98909.13
2023-03-18T12:40:12.533Z,98917.66
2023-03-18T12:41:21.469Z,98916.53
2023-03-18T12:42:40.658Z,98917.13
2023-03-18T12:44:12.591Z,98912.88
2023-03-18T12:45:25.218Z,98913.66
2023-03-18T12:46:33.481Z,98911.72
2023-03-18T12:48:04.966Z,98916.97
2023-03-18T12:49:10.206Z,98908.75
2023-03-18T12:50:18.247Z,98911.97
2023-03-18T12:51:29.240Z,98908.13
2023-03-18T12:52:43.729Z,98902.25
2023-03-18T12:53:50.431Z,98903.06
2023-03-18T12:55:01.245Z,98904.84
2023-03-18T12:56:11.553Z,98900.44
2023-03-18T12:57:47.568Z,98906.09
2023-03-18T12:59:15.287Z,98899.81
2023-03-18T13:00:28.103Z,98897.47
2023-03-18T13:01:47.515Z,98901.38
2023-03-18T13:03:05.496Z,98891.13
2023-03-18T13:04:18.242Z,98893.34
2023-03-18T13:05:27.388Z,98895.38
2023-03-18T13:07:04.741Z,98897.50
2023-03-18T13:08:14.514Z,98891.97
2023-03-18T13:09:41.309Z,98892.31
2023-03-18T13:10:47.038Z,98891.91
2023-03-18T13:12:01.906Z,98895.00
2023-03-18T13:13:08.655Z,98897.28
2023-03-18T13:14:56.452Z,98888.00
2023-03-18T13:16:01.300Z,98898.69
2023-03-18T13:17:04.995Z,98891.13
2023-03-18T13:18:31.884Z,98892.50
2023-03-18T13:19:35.586Z,98893.28
2023-03-18T13:20:39.799Z,98896.91
2023-03-18T13:21:51.695Z,98898.44
2023-03-18T13:23:02.838Z,98901.31
2023-03-18T13:24:24.408Z,98898.19
2023-03-18T13:25:35.402Z,98897.25
2023-03-18T13:27:28.336Z,98899.19
2023-03-18T13:29:02.388Z,98903.06
2023-03-18T13:30:28.745Z,98898.00
2023-03-18T13:32:01.693Z,98902.16
2023-03-18T13:33:34.563Z,98894.00
2023-03-18T13:34:57.040Z,98896.91
2023-03-18T13:36:22.396Z,98893.75
2023-03-18T13:38:03.526Z,98895.50
2023-03-18T13:39:05.713Z,98892.97
2023-03-18T13:40:38.413Z,98885.34
2023-03-18T13:41:52.786Z,98882.66
2023-03-18T13:43:00.143Z,98882.84
2023-03-18T13:44:11.523Z,98887.88
2023-03-18T13:45:32.084Z,98884.59
2023-03-18T13:46:35.209Z,98889.44
2023-03-18T13:47:39.736Z,98888.88
2023-03-18T13:48:41.977Z,98877.31
2023-03-18T13:49:44.812Z,98877.38